sensor_id;sensor_type;location;lat;lon;timestamp;P1;durP1;ratioP1;P2;durP2;ratioP2
46675;SDS011;32412;51.478;5.694;2024-01-15T00:01:49;60.78;;;21.00;;
46675;SDS011;32412;51.478;5.694;2024-01-15T00:04:15;62.55;;;21.88;;
46675;SDS011;32412;51.478;5.694;2024-01-15T00:06:40;58.85;;;22.20;;
46675;SDS011;32412;51.478;5.694;2024-01-15T00:09:06;61.25;;;23.08;;
46675;SDS011;32412;51.478;5.694;2024-01-15T00:11:32;67.90;;;22.13;;
46675;SDS011;32412;51.478;5.694;2024-01-15T00:13:57;72.15;;;23.30;;
46675;SDS011;32412;51.478;5.694;2024-01-15T00:16:23;59.78;;;22.27;;
46675;SDS011;32412;51.478;5.694;2024-01-15T00:18:49;69.75;;;24.17;;
46675;SDS011;32412;51.478;5.694;2024-01-15T00:21:15;65.88;;;22.20;;
46675;SDS011;32412;51.478;5.694;2024-01-15T00:23:44;65.50;;;23.23;;
46675;SDS011;32412;51.478;5.694;2024-01-15T00:26:10;71.90;;;23.38;;
46675;SDS011;32412;51.478;5.694;2024-01-15T00:28:36;63.70;;;20.70;;
46675;SDS011;32412;51.478;5.694;2024-01-15T00:31:02;71.32;;;22.42;;
46675;SDS011;32412;51.478;5.694;2024-01-15T00:33:29;68.93;;;21.88;;
46675;SDS011;32412;51.478;5.694;2024-01-15T00:35:54;66.13;;;22.67;;
46675;SDS011;32412;51.478;5.694;2024-01-15T00:38:20;66.50;;;21.05;;
46675;SDS011;32412;51.478;5.694;2024-01-15T00:40:46;62.90;;;20.40;;
46675;SDS011;32412;51.478;5.694;2024-01-15T00:43:12;68.95;;;21.40;;
46675;SDS011;32412;51.478;5.694;2024-01-15T00:45:37;59.85;;;21.60;;
46675;SDS011;32412;51.478;5.694;2024-01-15T00:48:03;63.30;;;21.10;;
46675;SDS011;32412;51.478;5.694;2024-01-15T00:50:29;54.50;;;19.77;;
46675;SDS011;32412;51.478;5.694;2024-01-15T00:52:55;60.35;;;21.10;;
46675;SDS011;32412;51.478;5.694;2024-01-15T00:55:21;62.72;;;19.95;;
46675;SDS011;32412;51.478;5.694;2024-01-15T00:57:46;51.90;;;19.63;;
46675;SDS011;32412;51.478;5.694;2024-01-15T01:00:12;49.40;;;17.88;;
46675;SDS011;32412;51.478;5.694;2024-01-15T01:02:38;53.15;;;17.88;;
46675;SDS011;32412;51.478;5.694;2024-01-15T01:05:03;46.28;;;16.08;;
46675;SDS011;32412;51.478;5.694;2024-01-15T01:07:29;47.25;;;15.93;;
46675;SDS011;32412;51.478;5.694;2024-01-15T01:09:55;40.17;;;15.98;;
46675;SDS011;32412;51.478;5.694;2024-01-15T01:12:21;38.38;;;14.75;;
46675;SDS011;32412;51.478;5.694;2024-01-15T01:14:46;41.40;;;14.40;;
46675;SDS011;32412;51.478;5.694;2024-01-15T01:17:12;30.65;;;12.73;;
46675;SDS011;32412;51.478;5.694;2024-01-15T01:19:38;33.45;;;11.93;;
46675;SDS011;32412;51.478;5.694;2024-01-15T01:22:03;29.65;;;10.63;;
46675;SDS011;32412;51.478;5.694;2024-01-15T01:24:29;26.38;;;9.70;;
46675;SDS011;32412;51.478;5.694;2024-01-15T01:26:55;32.75;;;9.27;;
46675;SDS011;32412;51.478;5.694;2024-01-15T01:29:20;24.05;;;8.20;;
46675;SDS011;32412;51.478;5.694;2024-01-15T01:31:46;20.58;;;7.13;;
46675;SDS011;32412;51.478;5.694;2024-01-15T01:34:15;16.42;;;6.85;;
46675;SDS011;32412;51.478;5.694;2024-01-15T01:36:41;13.85;;;5.72;;
46675;SDS011;32412;51.478;5.694;2024-01-15T01:39:07;16.08;;;4.88;;
46675;SDS011;32412;51.478;5.694;2024-01-15T01:41:34;13.23;;;4.43;;
46675;SDS011;32412;51.478;5.694;2024-01-15T01:44:00;12.48;;;4.07;;
46675;SDS011;32412;51.478;5.694;2024-01-15T01:46:26;10.02;;;3.47;;
46675;SDS011;32412;51.478;5.694;2024-01-15T01:48:53;11.85;;;3.95;;
46675;SDS011;32412;51.478;5.694;2024-01-15T01:51:20;10.25;;;2.80;;
46675;SDS011;32412;51.478;5.694;2024-01-15T01:53:48;9.40;;;2.97;;
46675;SDS011;32412;51.478;5.694;2024-01-15T01:56:14;11.10;;;3.38;;
46675;SDS011;32412;51.478;5.694;2024-01-15T01:58:41;6.35;;;3.13;;
46675;SDS011;32412;51.478;5.694;2024-01-15T02:01:07;10.90;;;2.83;;
46675;SDS011;32412;51.478;5.694;2024-01-15T02:03:33;6.78;;;2.65;;
46675;SDS011;32412;51.478;5.694;2024-01-15T02:05:59;7.90;;;3.17;;
46675;SDS011;32412;51.478;5.694;2024-01-15T02:08:26;9.15;;;3.15;;
46675;SDS011;32412;51.478;5.694;2024-01-15T02:10:52;8.93;;;3.53;;
46675;SDS011;32412;51.478;5.694;2024-01-15T02:13:18;12.07;;;3.05;;
46675;SDS011;32412;51.478;5.694;2024-01-15T02:15:45;11.88;;;4.03;;
46675;SDS011;32412;51.478;5.694;2024-01-15T02:18:11;10.48;;;3.63;;
46675;SDS011;32412;51.478;5.694;2024-01-15T02:20:36;12.45;;;4.20;;
46675;SDS011;32412;51.478;5.694;2024-01-15T02:23:12;11.50;;;4.40;;
46675;SDS011;32412;51.478;5.694;2024-01-15T02:25:45;14.82;;;4.82;;
46675;SDS011;32412;51.478;5.694;2024-01-15T02:28:15;12.83;;;4.80;;
46675;SDS011;32412;51.478;5.694;2024-01-15T02:30:42;10.63;;;4.50;;
46675;SDS011;32412;51.478;5.694;2024-01-15T02:33:08;18.35;;;4.53;;
46675;SDS011;32412;51.478;5.694;2024-01-15T02:35:35;10.25;;;4.47;;
46675;SDS011;32412;51.478;5.694;2024-01-15T02:38:04;17.25;;;5.28;;
46675;SDS011;32412;51.478;5.694;2024-01-15T02:40:30;16.00;;;4.57;;
46675;SDS011;32412;51.478;5.694;2024-01-15T02:42:56;14.75;;;4.97;;
46675;SDS011;32412;51.478;5.694;2024-01-15T02:45:22;15.52;;;4.28;;
46675;SDS011;32412;51.478;5.694;2024-01-15T02:47:48;19.75;;;4.57;;
46675;SDS011;32412;51.478;5.694;2024-01-15T02:50:14;8.23;;;4.20;;
46675;SDS011;32412;51.478;5.694;2024-01-15T02:52:43;12.05;;;4.63;;
46675;SDS011;32412;51.478;5.694;2024-01-15T02:55:09;12.75;;;4.47;;
46675;SDS011;32412;51.478;5.694;2024-01-15T02:57:35;14.38;;;5.35;;
46675;SDS011;32412;51.478;5.694;2024-01-15T03:00:01;12.15;;;5.25;;
46675;SDS011;32412;51.478;5.694;2024-01-15T03:02:28;17.75;;;5.57;;
46675;SDS011;32412;51.478;5.694;2024-01-15T03:04:56;12.70;;;5.13;;
46675;SDS011;32412;51.478;5.694;2024-01-15T03:07:22;17.33;;;5.05;;
46675;SDS011;32412;51.478;5.694;2024-01-15T03:09:48;14.18;;;5.53;;
46675;SDS011;32412;51.478;5.694;2024-01-15T03:12:13;10.13;;;4.30;;
46675;SDS011;32412;51.478;5.694;2024-01-15T03:14:39;11.65;;;4.35;;
46675;SDS011;32412;51.478;5.694;2024-01-15T03:17:05;11.18;;;4.15;;
46675;SDS011;32412;51.478;5.694;2024-01-15T03:19:31;16.58;;;4.00;;
46675;SDS011;32412;51.478;5.694;2024-01-15T03:21:59;14.95;;;3.55;;
46675;SDS011;32412;51.478;5.694;2024-01-15T03:24:25;7.35;;;2.75;;
46675;SDS011;32412;51.478;5.694;2024-01-15T03:26:51;8.50;;;3.38;;
46675;SDS011;32412;51.478;5.694;2024-01-15T03:29:16;13.80;;;2.95;;
46675;SDS011;32412;51.478;5.694;2024-01-15T03:31:42;8.98;;;3.38;;
46675;SDS011;32412;51.478;5.694;2024-01-15T03:34:08;9.85;;;3.28;;
46675;SDS011;32412;51.478;5.694;2024-01-15T03:36:34;11.82;;;3.13;;
46675;SDS011;32412;51.478;5.694;2024-01-15T03:38:59;5.93;;;2.80;;
46675;SDS011;32412;51.478;5.694;2024-01-15T03:41:25;9.48;;;3.28;;
46675;SDS011;32412;51.478;5.694;2024-01-15T03:43:51;14.73;;;2.80;;
46675;SDS011;32412;51.478;5.694;2024-01-15T03:46:16;14.93;;;2.80;;
46675;SDS011;32412;51.478;5.694;2024-01-15T03:48:42;13.98;;;3.30;;
46675;SDS011;32412;51.478;5.694;2024-01-15T03:51:07;6.38;;;2.60;;
46675;SDS011;32412;51.478;5.694;2024-01-15T03:53:33;11.15;;;3.08;;
46675;SDS011;32412;51.478;5.694;2024-01-15T03:55:59;10.10;;;2.97;;
46675;SDS011;32412;51.478;5.694;2024-01-15T03:58:24;10.95;;;4.13;;
46675;SDS011;32412;51.478;5.694;2024-01-15T04:00:50;13.05;;;3.70;;
46675;SDS011;32412;51.478;5.694;2024-01-15T04:03:16;13.57;;;3.50;;
46675;SDS011;32412;51.478;5.694;2024-01-15T04:05:42;13.90;;;3.83;;
46675;SDS011;32412;51.478;5.694;2024-01-15T04:08:07;12.57;;;4.32;;
46675;SDS011;32412;51.478;5.694;2024-01-15T04:10:33;17.42;;;5.07;;
46675;SDS011;32412;51.478;5.694;2024-01-15T04:12:59;18.23;;;4.35;;
46675;SDS011;32412;51.478;5.694;2024-01-15T04:15:26;10.10;;;4.13;;
46675;SDS011;32412;51.478;5.694;2024-01-15T04:17:52;12.32;;;4.65;;
46675;SDS011;32412;51.478;5.694;2024-01-15T04:20:18;12.38;;;3.95;;
46675;SDS011;32412;51.478;5.694;2024-01-15T04:22:43;13.13;;;3.70;;
46675;SDS011;32412;51.478;5.694;2024-01-15T04:25:09;16.55;;;3.50;;
46675;SDS011;32412;51.478;5.694;2024-01-15T04:27:35;12.52;;;3.03;;
46675;SDS011;32412;51.478;5.694;2024-01-15T04:30:00;15.38;;;3.40;;
46675;SDS011;32412;51.478;5.694;2024-01-15T04:32:26;12.27;;;2.65;;
46675;SDS011;32412;51.478;5.694;2024-01-15T04:34:51;11.93;;;2.35;;
46675;SDS011;32412;51.478;5.694;2024-01-15T04:37:17;9.85;;;2.47;;
46675;SDS011;32412;51.478;5.694;2024-01-15T04:39:43;8.60;;;2.20;;
46675;SDS011;32412;51.478;5.694;2024-01-15T04:42:08;9.40;;;2.00;;
46675;SDS011;32412;51.478;5.694;2024-01-15T04:44:34;12.20;;;1.95;;
46675;SDS011;32412;51.478;5.694;2024-01-15T04:47:00;8.20;;;1.90;;
46675;SDS011;32412;51.478;5.694;2024-01-15T04:49:25;12.50;;;1.80;;
46675;SDS011;32412;51.478;5.694;2024-01-15T04:51:52;7.63;;;1.75;;
46675;SDS011;32412;51.478;5.694;2024-01-15T04:54:18;8.68;;;1.60;;
46675;SDS011;32412;51.478;5.694;2024-01-15T04:56:44;10.50;;;1.55;;
46675;SDS011;32412;51.478;5.694;2024-01-15T04:59:10;6.72;;;1.20;;
46675;SDS011;32412;51.478;5.694;2024-01-15T05:01:36;6.63;;;1.25;;
46675;SDS011;32412;51.478;5.694;2024-01-15T05:04:02;11.07;;;1.65;;
46675;SDS011;32412;51.478;5.694;2024-01-15T05:06:27;6.47;;;1.15;;
46675;SDS011;32412;51.478;5.694;2024-01-15T05:08:53;7.90;;;1.08;;
46675;SDS011;32412;51.478;5.694;2024-01-15T05:11:20;7.25;;;1.42;;
46675;SDS011;32412;51.478;5.694;2024-01-15T05:13:45;4.05;;;1.08;;
46675;SDS011;32412;51.478;5.694;2024-01-15T05:16:11;1.05;;;0.95;;
46675;SDS011;32412;51.478;5.694;2024-01-15T05:18:37;3.00;;;0.80;;
46675;SDS011;32412;51.478;5.694;2024-01-15T05:21:03;1.80;;;0.73;;
46675;SDS011;32412;51.478;5.694;2024-01-15T05:23:29;4.43;;;0.90;;
46675;SDS011;32412;51.478;5.694;2024-01-15T05:25:56;2.17;;;0.47;;
46675;SDS011;32412;51.478;5.694;2024-01-15T05:28:22;1.25;;;0.60;;
46675;SDS011;32412;51.478;5.694;2024-01-15T05:30:47;4.63;;;0.70;;
46675;SDS011;32412;51.478;5.694;2024-01-15T05:33:15;5.38;;;0.70;;
46675;SDS011;32412;51.478;5.694;2024-01-15T05:35:41;3.22;;;0.63;;
46675;SDS011;32412;51.478;5.694;2024-01-15T05:38:07;1.30;;;0.57;;
46675;SDS011;32412;51.478;5.694;2024-01-15T05:40:33;1.63;;;0.43;;
46675;SDS011;32412;51.478;5.694;2024-01-15T05:42:58;0.85;;;0.65;;
46675;SDS011;32412;51.478;5.694;2024-01-15T05:45:25;1.73;;;0.70;;
46675;SDS011;32412;51.478;5.694;2024-01-15T05:47:51;1.25;;;0.60;;
46675;SDS011;32412;51.478;5.694;2024-01-15T05:50:17;4.38;;;1.38;;
46675;SDS011;32412;51.478;5.694;2024-01-15T05:52:43;2.78;;;0.80;;
46675;SDS011;32412;51.478;5.694;2024-01-15T05:55:08;5.60;;;1.10;;
46675;SDS011;32412;51.478;5.694;2024-01-15T05:57:35;2.50;;;0.90;;
46675;SDS011;32412;51.478;5.694;2024-01-15T06:00:01;7.78;;;1.40;;
46675;SDS011;32412;51.478;5.694;2024-01-15T06:02:27;3.97;;;1.60;;
46675;SDS011;32412;51.478;5.694;2024-01-15T06:04:53;4.07;;;1.10;;
46675;SDS011;32412;51.478;5.694;2024-01-15T06:07:18;4.15;;;1.55;;
46675;SDS011;32412;51.478;5.694;2024-01-15T06:09:44;4.97;;;1.40;;
46675;SDS011;32412;51.478;5.694;2024-01-15T06:12:10;7.70;;;1.30;;
46675;SDS011;32412;51.478;5.694;2024-01-15T06:14:35;4.95;;;1.42;;
46675;SDS011;32412;51.478;5.694;2024-01-15T06:17:01;9.57;;;1.63;;
46675;SDS011;32412;51.478;5.694;2024-01-15T06:19:27;4.15;;;1.65;;
46675;SDS011;32412;51.478;5.694;2024-01-15T06:21:53;7.35;;;1.83;;
46675;SDS011;32412;51.478;5.694;2024-01-15T06:24:19;7.55;;;1.90;;
46675;SDS011;32412;51.478;5.694;2024-01-15T06:26:46;7.35;;;2.78;;
46675;SDS011;32412;51.478;5.694;2024-01-15T06:29:12;11.10;;;3.53;;
46675;SDS011;32412;51.478;5.694;2024-01-15T06:31:38;12.07;;;3.30;;
46675;SDS011;32412;51.478;5.694;2024-01-15T06:34:03;15.90;;;3.88;;
46675;SDS011;32412;51.478;5.694;2024-01-15T06:36:29;8.73;;;4.35;;
46675;SDS011;32412;51.478;5.694;2024-01-15T06:38:55;14.70;;;3.97;;
46675;SDS011;32412;51.478;5.694;2024-01-15T06:41:21;9.88;;;3.47;;
46675;SDS011;32412;51.478;5.694;2024-01-15T06:43:46;11.10;;;3.72;;
46675;SDS011;32412;51.478;5.694;2024-01-15T06:46:13;9.27;;;3.90;;
46675;SDS011;32412;51.478;5.694;2024-01-15T06:48:48;8.15;;;3.80;;
46675;SDS011;32412;51.478;5.694;2024-01-15T06:51:14;9.93;;;4.10;;
46675;SDS011;32412;51.478;5.694;2024-01-15T06:53:40;9.70;;;3.67;;
46675;SDS011;32412;51.478;5.694;2024-01-15T06:56:06;5.60;;;2.83;;
46675;SDS011;32412;51.478;5.694;2024-01-15T06:58:32;5.60;;;3.10;;
46675;SDS011;32412;51.478;5.694;2024-01-15T07:00:58;10.75;;;2.40;;
46675;SDS011;32412;51.478;5.694;2024-01-15T07:03:24;8.75;;;2.65;;
46675;SDS011;32412;51.478;5.694;2024-01-15T07:05:50;6.30;;;2.60;;
46675;SDS011;32412;51.478;5.694;2024-01-15T07:08:15;10.13;;;2.60;;
46675;SDS011;32412;51.478;5.694;2024-01-15T07:10:41;11.10;;;3.00;;
46675;SDS011;32412;51.478;5.694;2024-01-15T07:13:07;7.03;;;3.00;;
46675;SDS011;32412;51.478;5.694;2024-01-15T07:15:32;9.15;;;3.58;;
46675;SDS011;32412;51.478;5.694;2024-01-15T07:17:58;6.40;;;3.72;;
46675;SDS011;32412;51.478;5.694;2024-01-15T07:20:24;6.75;;;3.55;;
46675;SDS011;32412;51.478;5.694;2024-01-15T07:22:49;8.75;;;3.60;;
46675;SDS011;32412;51.478;5.694;2024-01-15T07:25:15;6.68;;;3.30;;
46675;SDS011;32412;51.478;5.694;2024-01-15T07:27:42;6.55;;;3.47;;
46675;SDS011;32412;51.478;5.694;2024-01-15T07:30:10;5.53;;;3.25;;
46675;SDS011;32412;51.478;5.694;2024-01-15T07:32:36;9.23;;;3.53;;
46675;SDS011;32412;51.478;5.694;2024-01-15T07:35:05;5.65;;;3.40;;
46675;SDS011;32412;51.478;5.694;2024-01-15T07:37:31;9.13;;;4.10;;
46675;SDS011;32412;51.478;5.694;2024-01-15T07:39:58;7.85;;;3.63;;
46675;SDS011;32412;51.478;5.694;2024-01-15T07:42:24;8.10;;;4.40;;
46675;SDS011;32412;51.478;5.694;2024-01-15T07:44:50;6.43;;;3.88;;
46675;SDS011;32412;51.478;5.694;2024-01-15T07:47:16;9.25;;;4.25;;
46675;SDS011;32412;51.478;5.694;2024-01-15T07:49:42;8.32;;;4.30;;
46675;SDS011;32412;51.478;5.694;2024-01-15T07:52:08;8.70;;;4.57;;
46675;SDS011;32412;51.478;5.694;2024-01-15T07:54:34;6.88;;;4.25;;
46675;SDS011;32412;51.478;5.694;2024-01-15T07:57:00;8.57;;;4.30;;
46675;SDS011;32412;51.478;5.694;2024-01-15T07:59:30;11.70;;;4.10;;
46675;SDS011;32412;51.478;5.694;2024-01-15T08:01:55;7.78;;;3.90;;
46675;SDS011;32412;51.478;5.694;2024-01-15T08:04:24;9.00;;;4.38;;
46675;SDS011;32412;51.478;5.694;2024-01-15T08:06:50;6.63;;;3.65;;
46675;SDS011;32412;51.478;5.694;2024-01-15T08:09:15;7.80;;;4.00;;
46675;SDS011;32412;51.478;5.694;2024-01-15T08:11:42;9.85;;;5.50;;
46675;SDS011;32412;51.478;5.694;2024-01-15T08:14:08;9.95;;;5.05;;
46675;SDS011;32412;51.478;5.694;2024-01-15T08:16:34;13.40;;;6.43;;
46675;SDS011;32412;51.478;5.694;2024-01-15T08:19:00;13.32;;;7.13;;
46675;SDS011;32412;51.478;5.694;2024-01-15T08:21:26;12.90;;;8.00;;
46675;SDS011;32412;51.478;5.694;2024-01-15T08:23:55;15.02;;;7.15;;
46675;SDS011;32412;51.478;5.694;2024-01-15T08:26:21;14.82;;;7.35;;
46675;SDS011;32412;51.478;5.694;2024-01-15T08:28:47;11.98;;;6.95;;
46675;SDS011;32412;51.478;5.694;2024-01-15T08:31:13;13.75;;;7.72;;
46675;SDS011;32412;51.478;5.694;2024-01-15T08:33:39;11.20;;;6.75;;
46675;SDS011;32412;51.478;5.694;2024-01-15T08:36:04;13.77;;;7.35;;
46675;SDS011;32412;51.478;5.694;2024-01-15T08:38:30;15.15;;;8.43;;
46675;SDS011;32412;51.478;5.694;2024-01-15T08:40:56;14.68;;;7.07;;
46675;SDS011;32412;51.478;5.694;2024-01-15T08:43:24;14.73;;;7.57;;
46675;SDS011;32412;51.478;5.694;2024-01-15T08:45:50;11.93;;;7.00;;
46675;SDS011;32412;51.478;5.694;2024-01-15T08:48:16;14.57;;;6.85;;
46675;SDS011;32412;51.478;5.694;2024-01-15T08:50:42;15.15;;;7.28;;
46675;SDS011;32412;51.478;5.694;2024-01-15T08:53:14;15.00;;;6.90;;
46675;SDS011;32412;51.478;5.694;2024-01-15T08:55:40;13.57;;;7.07;;
46675;SDS011;32412;51.478;5.694;2024-01-15T08:58:07;13.25;;;7.25;;
46675;SDS011;32412;51.478;5.694;2024-01-15T09:00:33;15.73;;;7.50;;
46675;SDS011;32412;51.478;5.694;2024-01-15T09:02:59;12.68;;;7.05;;
46675;SDS011;32412;51.478;5.694;2024-01-15T09:05:25;14.73;;;7.63;;
46675;SDS011;32412;51.478;5.694;2024-01-15T09:07:51;14.98;;;7.53;;
46675;SDS011;32412;51.478;5.694;2024-01-15T09:10:17;14.65;;;7.72;;
46675;SDS011;32412;51.478;5.694;2024-01-15T09:12:43;14.88;;;7.15;;
46675;SDS011;32412;51.478;5.694;2024-01-15T09:15:09;13.73;;;7.25;;
46675;SDS011;32412;51.478;5.694;2024-01-15T09:17:35;12.20;;;6.63;;
46675;SDS011;32412;51.478;5.694;2024-01-15T09:20:01;11.77;;;6.63;;
46675;SDS011;32412;51.478;5.694;2024-01-15T09:22:29;16.42;;;9.18;;
46675;SDS011;32412;51.478;5.694;2024-01-15T09:24:55;13.05;;;5.78;;
46675;SDS011;32412;51.478;5.694;2024-01-15T09:27:21;12.27;;;5.10;;
46675;SDS011;32412;51.478;5.694;2024-01-15T09:29:46;7.95;;;4.72;;
46675;SDS011;32412;51.478;5.694;2024-01-15T09:32:12;9.85;;;4.65;;
46675;SDS011;32412;51.478;5.694;2024-01-15T09:34:38;6.82;;;3.97;;
46675;SDS011;32412;51.478;5.694;2024-01-15T09:37:03;8.93;;;3.50;;
46675;SDS011;32412;51.478;5.694;2024-01-15T09:39:29;6.47;;;3.40;;
46675;SDS011;32412;51.478;5.694;2024-01-15T09:41:57;7.57;;;3.25;;
46675;SDS011;32412;51.478;5.694;2024-01-15T09:44:23;4.20;;;2.30;;
46675;SDS011;32412;51.478;5.694;2024-01-15T09:46:49;3.97;;;2.05;;
46675;SDS011;32412;51.478;5.694;2024-01-15T09:49:16;4.78;;;1.50;;
46675;SDS011;32412;51.478;5.694;2024-01-15T09:51:42;5.53;;;1.23;;
46675;SDS011;32412;51.478;5.694;2024-01-15T09:54:08;3.53;;;1.02;;
46675;SDS011;32412;51.478;5.694;2024-01-15T09:56:34;3.88;;;0.95;;
46675;SDS011;32412;51.478;5.694;2024-01-15T09:59:00;5.32;;;0.80;;
46675;SDS011;32412;51.478;5.694;2024-01-15T10:01:27;3.08;;;0.77;;
46675;SDS011;32412;51.478;5.694;2024-01-15T10:03:54;4.90;;;0.95;;
46675;SDS011;32412;51.478;5.694;2024-01-15T10:06:21;4.57;;;0.90;;
46675;SDS011;32412;51.478;5.694;2024-01-15T10:08:47;7.57;;;1.38;;
46675;SDS011;32412;51.478;5.694;2024-01-15T10:11:15;4.05;;;0.90;;
46675;SDS011;32412;51.478;5.694;2024-01-15T10:13:42;4.03;;;0.80;;
46675;SDS011;32412;51.478;5.694;2024-01-15T10:16:08;1.45;;;0.80;;
46675;SDS011;32412;51.478;5.694;2024-01-15T10:18:34;3.53;;;1.02;;
46675;SDS011;32412;51.478;5.694;2024-01-15T10:21:04;5.70;;;0.63;;
46675;SDS011;32412;51.478;5.694;2024-01-15T10:23:39;3.63;;;0.80;;
46675;SDS011;32412;51.478;5.694;2024-01-15T10:26:04;5.07;;;0.63;;
46675;SDS011;32412;51.478;5.694;2024-01-15T10:28:30;2.47;;;0.70;;
46675;SDS011;32412;51.478;5.694;2024-01-15T10:30:57;5.00;;;0.70;;
46675;SDS011;32412;51.478;5.694;2024-01-15T10:33:24;4.20;;;1.00;;
46675;SDS011;32412;51.478;5.694;2024-01-15T10:35:53;6.07;;;1.10;;
46675;SDS011;32412;51.478;5.694;2024-01-15T10:38:20;7.55;;;0.85;;
46675;SDS011;32412;51.478;5.694;2024-01-15T10:40:47;3.50;;;0.98;;
46675;SDS011;32412;51.478;5.694;2024-01-15T10:43:16;3.13;;;1.08;;
46675;SDS011;32412;51.478;5.694;2024-01-15T10:45:43;8.50;;;0.82;;
46675;SDS011;32412;51.478;5.694;2024-01-15T10:48:13;2.47;;;1.25;;
46675;SDS011;32412;51.478;5.694;2024-01-15T10:50:40;7.25;;;1.27;;
46675;SDS011;32412;51.478;5.694;2024-01-15T10:53:06;5.20;;;1.27;;
46675;SDS011;32412;51.478;5.694;2024-01-15T10:55:38;4.13;;;1.40;;
46675;SDS011;32412;51.478;5.694;2024-01-15T10:58:07;4.75;;;1.70;;
46675;SDS011;32412;51.478;5.694;2024-01-15T11:00:33;5.53;;;1.67;;
46675;SDS011;32412;51.478;5.694;2024-01-15T11:03:03;5.30;;;2.28;;
46675;SDS011;32412;51.478;5.694;2024-01-15T11:05:34;6.07;;;1.75;;
46675;SDS011;32412;51.478;5.694;2024-01-15T11:08:05;7.00;;;2.70;;
46675;SDS011;32412;51.478;5.694;2024-01-15T11:10:45;7.53;;;2.08;;
46675;SDS011;32412;51.478;5.694;2024-01-15T11:16:03;3.47;;;2.05;;
46675;SDS011;32412;51.478;5.694;2024-01-15T11:18:42;5.72;;;1.90;;
46675;SDS011;32412;51.478;5.694;2024-01-15T11:21:26;5.47;;;1.55;;
46675;SDS011;32412;51.478;5.694;2024-01-15T11:23:55;6.85;;;2.03;;
46675;SDS011;32412;51.478;5.694;2024-01-15T11:26:33;4.43;;;1.90;;
46675;SDS011;32412;51.478;5.694;2024-01-15T11:29:04;6.68;;;2.50;;
46675;SDS011;32412;51.478;5.694;2024-01-15T11:34:04;3.08;;;1.88;;
46675;SDS011;32412;51.478;5.694;2024-01-15T11:42:01;2.20;;;1.30;;
46675;SDS011;32412;51.478;5.694;2024-01-15T11:44:28;5.43;;;1.27;;
46675;SDS011;32412;51.478;5.694;2024-01-15T11:52:02;4.25;;;1.20;;
46675;SDS011;32412;51.478;5.694;2024-01-15T11:54:31;4.30;;;1.05;;
46675;SDS011;32412;51.478;5.694;2024-01-15T11:57:02;1.75;;;1.10;;
46675;SDS011;32412;51.478;5.694;2024-01-15T11:59:33;4.57;;;1.27;;
46675;SDS011;32412;51.478;5.694;2024-01-15T12:01:59;1.45;;;0.77;;
46675;SDS011;32412;51.478;5.694;2024-01-15T12:04:25;1.63;;;0.98;;
46675;SDS011;32412;51.478;5.694;2024-01-15T12:06:51;3.25;;;1.20;;
46675;SDS011;32412;51.478;5.694;2024-01-15T12:09:20;2.97;;;1.17;;
46675;SDS011;32412;51.478;5.694;2024-01-15T12:11:48;2.58;;;1.05;;
46675;SDS011;32412;51.478;5.694;2024-01-15T12:14:20;1.27;;;0.95;;
46675;SDS011;32412;51.478;5.694;2024-01-15T12:16:46;1.20;;;1.00;;
46675;SDS011;32412;51.478;5.694;2024-01-15T12:19:13;1.38;;;1.25;;
46675;SDS011;32412;51.478;5.694;2024-01-15T12:21:40;3.33;;;1.40;;
46675;SDS011;32412;51.478;5.694;2024-01-15T12:24:07;2.15;;;1.02;;
46675;SDS011;32412;51.478;5.694;2024-01-15T12:26:33;1.58;;;1.20;;
46675;SDS011;32412;51.478;5.694;2024-01-15T12:29:01;3.63;;;1.00;;
46675;SDS011;32412;51.478;5.694;2024-01-15T12:31:27;3.15;;;1.23;;
46675;SDS011;32412;51.478;5.694;2024-01-15T12:33:55;3.50;;;1.10;;
46675;SDS011;32412;51.478;5.694;2024-01-15T12:36:21;1.75;;;1.10;;
46675;SDS011;32412;51.478;5.694;2024-01-15T12:38:47;2.35;;;1.33;;
46675;SDS011;32412;51.478;5.694;2024-01-15T12:41:12;2.05;;;1.52;;
46675;SDS011;32412;51.478;5.694;2024-01-15T12:43:38;2.17;;;1.80;;
46675;SDS011;32412;51.478;5.694;2024-01-15T12:46:05;3.20;;;1.90;;
46675;SDS011;32412;51.478;5.694;2024-01-15T12:48:31;7.32;;;2.15;;
46675;SDS011;32412;51.478;5.694;2024-01-15T12:50:57;5.20;;;2.28;;
46675;SDS011;32412;51.478;5.694;2024-01-15T12:53:22;7.88;;;2.60;;
46675;SDS011;32412;51.478;5.694;2024-01-15T12:55:48;5.07;;;2.42;;
46675;SDS011;32412;51.478;5.694;2024-01-15T12:58:14;2.65;;;2.25;;
46675;SDS011;32412;51.478;5.694;2024-01-15T13:00:39;3.13;;;2.72;;
46675;SDS011;32412;51.478;5.694;2024-01-15T13:03:08;6.15;;;3.22;;
46675;SDS011;32412;51.478;5.694;2024-01-15T13:05:33;2.95;;;2.65;;
46675;SDS011;32412;51.478;5.694;2024-01-15T13:08:01;6.90;;;3.58;;
46675;SDS011;32412;51.478;5.694;2024-01-15T13:10:28;5.97;;;3.05;;
46675;SDS011;32412;51.478;5.694;2024-01-15T13:12:55;3.42;;;3.03;;
46675;SDS011;32412;51.478;5.694;2024-01-15T13:15:21;5.88;;;2.80;;
46675;SDS011;32412;51.478;5.694;2024-01-15T13:17:46;4.88;;;3.10;;
46675;SDS011;32412;51.478;5.694;2024-01-15T13:20:12;5.10;;;3.60;;
46675;SDS011;32412;51.478;5.694;2024-01-15T13:22:38;7.60;;;4.57;;
46675;SDS011;32412;51.478;5.694;2024-01-15T13:25:05;4.45;;;3.38;;
46675;SDS011;32412;51.478;5.694;2024-01-15T13:27:32;6.55;;;3.53;;
46675;SDS011;32412;51.478;5.694;2024-01-15T13:30:00;6.72;;;3.30;;
46675;SDS011;32412;51.478;5.694;2024-01-15T13:32:28;6.75;;;3.38;;
46675;SDS011;32412;51.478;5.694;2024-01-15T13:34:55;4.75;;;3.30;;
46675;SDS011;32412;51.478;5.694;2024-01-15T13:37:21;4.72;;;3.20;;
46675;SDS011;32412;51.478;5.694;2024-01-15T13:39:49;4.32;;;2.85;;
46675;SDS011;32412;51.478;5.694;2024-01-15T13:42:16;4.57;;;3.17;;
46675;SDS011;32412;51.478;5.694;2024-01-15T13:44:42;4.60;;;2.60;;
46675;SDS011;32412;51.478;5.694;2024-01-15T13:47:08;4.15;;;3.33;;
46675;SDS011;32412;51.478;5.694;2024-01-15T13:49:34;5.35;;;3.60;;
46675;SDS011;32412;51.478;5.694;2024-01-15T13:52:01;5.47;;;4.20;;
46675;SDS011;32412;51.478;5.694;2024-01-15T13:54:29;7.38;;;4.53;;
46675;SDS011;32412;51.478;5.694;2024-01-15T13:56:55;7.70;;;4.32;;
46675;SDS011;32412;51.478;5.694;2024-01-15T13:59:21;5.90;;;3.50;;
46675;SDS011;32412;51.478;5.694;2024-01-15T14:01:47;9.98;;;5.07;;
46675;SDS011;32412;51.478;5.694;2024-01-15T14:04:13;5.47;;;4.20;;
46675;SDS011;32412;51.478;5.694;2024-01-15T14:06:39;6.28;;;4.50;;
46675;SDS011;32412;51.478;5.694;2024-01-15T14:09:05;3.67;;;2.97;;
46675;SDS011;32412;51.478;5.694;2024-01-15T14:11:30;7.05;;;2.95;;
46675;SDS011;32412;51.478;5.694;2024-01-15T14:13:56;4.28;;;2.53;;
46675;SDS011;32412;51.478;5.694;2024-01-15T14:16:22;3.92;;;2.75;;
46675;SDS011;32412;51.478;5.694;2024-01-15T14:18:48;5.47;;;2.65;;
46675;SDS011;32412;51.478;5.694;2024-01-15T14:21:13;4.88;;;2.85;;
46675;SDS011;32412;51.478;5.694;2024-01-15T14:23:40;10.65;;;4.93;;
46675;SDS011;32412;51.478;5.694;2024-01-15T14:26:05;10.85;;;6.00;;
46675;SDS011;32412;51.478;5.694;2024-01-15T14:28:31;7.25;;;5.13;;
46675;SDS011;32412;51.478;5.694;2024-01-15T14:30:57;4.63;;;3.95;;
46675;SDS011;32412;51.478;5.694;2024-01-15T14:33:26;4.90;;;3.30;;
46675;SDS011;32412;51.478;5.694;2024-01-15T14:35:52;7.55;;;3.85;;
46675;SDS011;32412;51.478;5.694;2024-01-15T14:38:18;4.30;;;3.22;;
46675;SDS011;32412;51.478;5.694;2024-01-15T14:40:44;5.72;;;3.25;;
46675;SDS011;32412;51.478;5.694;2024-01-15T14:43:09;5.07;;;2.72;;
46675;SDS011;32412;51.478;5.694;2024-01-15T14:45:36;4.35;;;2.33;;
46675;SDS011;32412;51.478;5.694;2024-01-15T14:48:01;3.72;;;2.65;;
46675;SDS011;32412;51.478;5.694;2024-01-15T14:50:27;3.78;;;2.83;;
46675;SDS011;32412;51.478;5.694;2024-01-15T14:52:53;7.13;;;4.00;;